Time;durP1;ratioP1;P1;durP2;ratioP2;P2;SDS_P1;SDS_P2;PMS_P1;PMS_P2;Temp;Humidity;BMP_temperature;BMP_pressure;BME280_temperature;BME280_humidity;BME280_pressure;Samples;Min_cycle;Max_cycle;Signal;HPM_P1;HPM_P2
2022/08/23 00:04:50;;;;;;;9.30;5.30;;;;;;;20.07;79.37;99557.04;214078;1277;141685;-68
2022/08/23 00:10:14;;;;;;;6.80;6.20;;;;;;;20.10;79.51;99565.06;213855;1277;140449;-68
2022/08/23 00:15:19;;;;;;;6.50;5.60;;;;;;;20.13;79.44;99571.50;213641;1277;141130;-68
2022/08/23 00:20:22;;;;;;;7.40;5.70;;;;;;;20.09;79.35;99566.87;214633;1277;141098;-68
2022/08/23 00:25:26;;;;;;;7.20;5.20;;;;;;;20.08;79.52;99568.14;214851;1277;140444;-67
2022/08/23 00:30:30;;;;;;;6.50;5.40;;;;;;;20.02;79.31;99569.65;214058;1277;140800;-71
2022/08/23 00:35:35;;;;;;;5.70;5.20;;;;;;;19.95;79.30;99577.80;214300;1276;140676;-68
2022/08/23 00:40:39;;;;;;;5.50;4.90;;;;;;;19.92;79.35;99594.63;214409;1279;141597;-67
2022/08/23 00:52:00;;;;;;;13.20;5.60;;;;;;;19.88;79.67;99596.02;215221;1279;141765;-69
2022/08/23 00:57:09;;;;;;;6.60;5.90;;;;;;;19.91;79.81;99600.15;215416;1277;142118;-69
2022/08/23 01:02:14;;;;;;;8.70;5.80;;;;;;;19.90;79.57;99613.42;215127;1277;141495;-69
2022/08/23 01:07:44;;;;;;;8.30;5.20;;;;;;;19.82;79.56;99615.00;213120;1277;141724;-68
2022/08/23 01:12:58;;;;;;;11.10;6.50;;;;;;;19.86;80.00;99614.65;214552;1277;141830;-68
2022/08/23 01:18:06;;;;;;;6.20;5.20;;;;;;;19.94;79.98;99610.70;213146;1277;141529;-68
2022/08/23 01:23:28;;;;;;;9.00;5.80;;;;;;;19.95;80.09;99616.53;214656;1277;140877;-68
2022/08/23 01:28:34;;;;;;;5.80;5.10;;;;;;;19.90;79.85;99622.97;213626;1277;140011;-68
2022/08/23 01:33:45;;;;;;;5.50;5.00;;;;;;;19.79;79.89;99628.57;213268;1276;140202;-68
2022/08/23 01:38:50;;;;;;;8.20;6.40;;;;;;;19.79;80.31;99621.32;214578;1277;141182;-68
2022/08/23 01:43:55;;;;;;;10.50;5.40;;;;;;;19.83;80.43;99628.55;212990;1277;141397;-67
2022/08/23 01:48:59;;;;;;;9.20;6.40;;;;;;;19.83;80.31;99623.31;212407;1277;1261933;-68
2022/08/23 01:54:03;;;;;;;6.40;5.70;;;;;;;19.85;80.50;99607.05;213296;1279;140732;-68
2022/08/23 01:59:10;;;;;;;9.80;6.80;;;;;;;19.86;80.43;99598.43;212769;1277;141658;-67
2022/08/23 02:04:13;;;;;;;7.20;6.00;;;;;;;19.84;80.36;99601.55;213330;1277;142775;-68
2022/08/23 02:09:17;;;;;;;21.30;7.60;;;;;;;19.80;80.63;99606.32;213354;1277;141078;-69
2022/08/23 02:14:21;;;;;;;7.10;6.40;;;;;;;19.82;80.76;99604.12;213316;1277;140229;-69
2022/08/23 02:19:26;;;;;;;8.10;6.30;;;;;;;19.83;80.86;99616.02;214560;1277;140048;-68
2022/08/23 02:24:34;;;;;;;6.00;5.20;;;;;;;19.78;80.84;99615.73;214008;1277;140551;-69
2022/08/23 02:29:38;;;;;;;5.60;5.10;;;;;;;19.81;80.96;99620.11;214973;1277;140925;-69
2022/08/23 02:34:44;;;;;;;8.70;4.50;;;;;;;19.78;80.63;99620.64;215513;1277;141167;-68
2022/08/23 02:40:08;;;;;;;11.00;5.50;;;;;;;19.67;80.48;99639.97;215676;1277;141031;-69
2022/08/23 02:45:13;;;;;;;12.60;6.40;;;;;;;19.62;80.88;99662.86;215478;1277;141120;-69
2022/08/23 02:50:18;;;;;;;9.10;7.00;;;;;;;19.68;81.17;99652.45;215462;1277;141046;-69
2022/08/23 02:55:21;;;;;;;11.00;7.70;;;;;;;19.76;81.31;99640.58;215365;1277;140570;-68
2022/08/23 03:00:26;;;;;;;8.90;6.00;;;;;;;19.89;81.30;99632.17;215706;1277;142063;-68
2022/08/23 03:05:32;;;;;;;6.70;6.10;;;;;;;19.97;81.17;99629.11;214896;1277;143801;-68
2022/08/23 03:10:40;;;;;;;9.80;5.60;;;;;;;20.01;81.26;99625.41;214851;1277;140553;-68
2022/08/23 03:15:44;;;;;;;7.40;6.70;;;;;;;19.94;80.85;99647.55;214276;1277;140710;-67
2022/08/23 03:20:49;;;;;;;10.30;6.40;;;;;;;19.86;81.29;99655.34;213075;1277;207125;-67
2022/08/23 03:25:52;;;;;;;7.20;5.70;;;;;;;19.86;81.39;99643.50;214075;1277;141599;-68
2022/08/23 03:30:56;;;;;;;13.70;6.60;;;;;;;19.87;81.45;99626.66;213603;1277;140516;-68
2022/08/23 03:36:05;;;;;;;19.20;6.40;;;;;;;19.87;81.61;99606.59;213453;1277;143586;-68
2022/08/23 03:41:09;;;;;;;15.40;7.70;;;;;;;19.87;81.57;99594.77;213692;1277;141502;-68
2022/08/23 03:46:21;;;;;;;7.70;6.90;;;;;;;19.87;81.62;99610.53;213097;1277;141838;-68
2022/08/23 03:51:29;;;;;;;7.90;7.10;;;;;;;19.87;81.77;99607.77;213637;1277;141260;-68
2022/08/23 03:56:39;;;;;;;8.50;7.60;;;;;;;19.90;81.84;99617.77;213296;1278;142460;-68
2022/08/23 04:01:43;;;;;;;9.40;7.40;;;;;;;19.91;81.85;99623.04;213868;1277;229793;-68
2022/08/23 04:06:48;;;;;;;13.00;8.60;;;;;;;19.93;81.81;99621.88;214104;1277;142194;-68
2022/08/23 04:11:52;;;;;;;10.80;8.10;;;;;;;19.95;81.78;99610.95;213394;1277;140493;-68
2022/08/23 04:16:55;;;;;;;12.60;8.50;;;;;;;20.01;81.87;99617.56;214053;1277;140908;-68
2022/08/23 04:21:59;;;;;;;11.30;8.80;;;;;;;20.03;81.70;99610.00;213617;1277;140729;-68
2022/08/23 04:27:04;;;;;;;12.80;8.80;;;;;;;20.07;81.73;99609.27;214134;1277;141069;-68
2022/08/23 04:32:13;;;;;;;9.40;8.50;;;;;;;20.09;81.60;99605.33;214734;1277;140927;-67
2022/08/23 04:37:30;;;;;;;12.40;8.40;;;;;;;20.14;81.63;99618.51;215087;1277;141240;-67
2022/08/23 04:42:34;;;;;;;11.80;9.80;;;;;;;20.17;81.41;99622.84;215495;1277;141470;-68
2022/08/23 04:47:40;;;;;;;11.60;8.60;;;;;;;20.31;81.53;99624.48;215295;1277;142316;-68
2022/08/23 04:52:45;;;;;;;13.20;9.90;;;;;;;20.44;81.26;99617.38;215399;1277;141389;-67
2022/08/23 04:57:50;;;;;;;21.90;10.20;;;;;;;20.47;81.12;99613.66;214468;1277;152763;-68
2022/08/23 05:02:55;;;;;;;16.80;10.30;;;;;;;20.49;81.29;99621.27;213718;1277;141380;-68
2022/08/23 05:08:03;;;;;;;10.40;9.40;;;;;;;20.52;81.42;99629.16;213008;1277;141764;-68
2022/08/23 05:13:08;;;;;;;10.30;9.30;;;;;;;20.51;81.33;99626.15;213465;1277;142165;-69
2022/08/23 05:18:12;;;;;;;13.60;10.00;;;;;;;20.42;81.01;99629.55;213670;1278;142901;-68
2022/08/23 05:23:17;;;;;;;12.80;10.50;;;;;;;20.32;81.19;99629.02;212930;1277;141823;-68
2022/08/23 05:28:29;;;;;;;11.70;10.50;;;;;;;20.25;81.52;99626.13;214053;1277;141484;-69
2022/08/23 05:33:34;;;;;;;12.20;10.80;;;;;;;20.27;81.70;99635.29;213533;1277;141426;-68
2022/08/23 05:38:39;;;;;;;16.90;11.00;;;;;;;20.30;81.84;99645.46;212859;1278;141769;-68
2022/08/23 05:43:43;;;;;;;12.30;11.00;;;;;;;20.38;81.91;99643.23;213458;1277;142208;-69
2022/08/23 05:48:49;;;;;;;16.70;10.70;;;;;;;20.44;82.03;99643.60;214099;1277;141501;-66
2022/08/23 05:53:56;;;;;;;12.10;10.90;;;;;;;20.52;81.88;99642.16;213896;1277;141220;-67
2022/08/23 05:59:05;;;;;;;17.20;12.10;;;;;;;20.59;81.82;99642.78;214043;1277;141571;-66
2022/08/23 06:04:16;;;;;;;14.20;11.10;;;;;;;20.73;82.02;99643.95;214327;1277;142689;-68
2022/08/23 06:09:20;;;;;;;15.50;11.90;;;;;;;20.81;81.76;99652.48;214086;1277;142811;-70
2022/08/23 06:14:26;;;;;;;20.20;12.00;;;;;;;20.86;81.70;99666.09;213914;1277;142236;-68
2022/08/23 06:19:30;;;;;;;12.90;10.60;;;;;;;20.90;81.58;99658.16;213577;1277;142069;-68
2022/08/23 06:24:35;;;;;;;20.50;12.30;;;;;;;20.92;81.62;99662.51;214661;1277;144092;-69
2022/08/23 06:29:43;;;;;;;19.10;11.30;;;;;;;20.94;81.40;99669.94;215035;1277;141306;-68
2022/08/23 06:34:48;;;;;;;12.20;10.90;;;;;;;21.00;81.33;99668.78;215706;1277;141435;-67
2022/08/23 06:40:03;;;;;;;12.90;11.40;;;;;;;21.07;81.32;99664.67;215425;1278;141695;-67
2022/08/23 06:45:09;;;;;;;12.30;10.30;;;;;;;21.14;81.32;99661.45;214358;1278;141228;-67
2022/08/23 06:50:13;;;;;;;12.10;10.30;;;;;;;21.24;81.36;99667.23;215539;1278;141422;-69
2022/08/23 06:55:17;;;;;;;16.00;10.40;;;;;;;21.38;81.17;99676.07;214683;1277;141259;-67
2022/08/23 07:00:21;;;;;;;19.10;10.20;;;;;;;21.58;81.14;99679.60;214768;1278;142533;-67
2022/08/23 07:05:26;;;;;;;12.00;9.60;;;;;;;21.73;80.81;99684.48;213162;1277;141331;-67
2022/08/23 07:10:30;;;;;;;13.80;10.50;;;;;;;21.82;80.73;99686.63;212910;1279;141634;-68
2022/08/23 07:15:35;;;;;;;10.90;9.70;;;;;;;21.80;80.48;99678.91;213136;1277;141804;-68
2022/08/23 07:20:38;;;;;;;13.80;10.20;;;;;;;21.73;80.34;99682.38;214118;1277;140208;-68
2022/08/23 07:25:42;;;;;;;17.30;10.10;;;;;;;21.67;80.38;99696.14;213577;1277;140709;-68
2022/08/23 07:30:46;;;;;;;15.40;10.10;;;;;;;21.69;80.57;99701.80;213423;1277;152755;-67
2022/08/23 07:35:52;;;;;;;16.10;10.70;;;;;;;21.83;80.69;99705.71;213730;1278;141744;-69
2022/08/23 07:40:56;;;;;;;14.70;10.80;;;;;;;22.09;80.76;99712.02;213298;1277;142056;-69
2022/08/23 07:46:00;;;;;;;13.30;10.40;;;;;;;22.42;80.73;99698.83;214219;1278;151798;-69
2022/08/23 07:51:10;;;;;;;12.10;10.80;;;;;;;22.92;80.50;99704.66;213595;1278;142253;-71
2022/08/23 07:56:16;;;;;;;18.40;11.90;;;;;;;23.32;80.04;99708.66;213938;1278;143950;-68
2022/08/23 08:01:26;;;;;;;14.30;10.00;;;;;;;23.44;79.50;99713.59;213495;1278;140983;-68
2022/08/23 08:06:34;;;;;;;14.00;10.90;;;;;;;23.49;79.07;99721.92;212915;1278;140951;-68
2022/08/23 08:11:44;;;;;;;21.30;10.10;;;;;;;23.40;78.88;99720.15;213829;1278;234689;-67
2022/08/23 08:16:52;;;;;;;12.50;10.20;;;;;;;23.32;78.84;99719.79;214292;1277;141805;-68
2022/08/23 08:21:56;;;;;;;15.60;11.20;;;;;;;23.29;78.69;99721.13;214446;1277;141489;-68
2022/08/23 08:27:03;;;;;;;15.00;12.10;;;;;;;23.35;78.86;99733.36;214844;1277;140655;-67
2022/08/23 08:32:09;;;;;;;;;;;;;;;23.45;78.93;99743.48;214900;1277;142180;-68
2022/08/23 08:37:16;;;;;;;15.60;11.30;;;;;;;23.50;78.54;99755.85;216172;1278;127196;-70
2022/08/23 08:42:47;;;;;;;16.10;11.70;;;;;;;23.59;78.61;99758.52;215607;1278;140905;-70
2022/08/23 08:48:14;;;;;;;18.40;12.40;;;;;;;23.74;78.59;99758.33;215116;1277;140910;-69
2022/08/23 08:53:33;;;;;;;18.40;13.20;;;;;;;23.89;78.48;99755.55;213140;1277;141075;-66
2022/08/23 08:58:49;;;;;;;18.30;11.50;;;;;;;24.11;78.66;99759.17;213631;1278;140684;-68
2022/08/23 09:03:55;;;;;;;17.90;12.40;;;;;;;24.33;78.24;99758.56;214147;1278;141189;-66
2022/08/23 09:09:19;;;;;;;18.20;12.80;;;;;;;24.60;78.44;99766.48;213752;1278;141232;-68
2022/08/23 09:14:31;;;;;;;14.50;12.70;;;;;;;24.79;77.85;99775.17;213712;1279;140899;-66
2022/08/23 09:19:37;;;;;;;12.90;11.60;;;;;;;24.92;77.44;99766.48;212824;1278;140235;-67
2022/08/23 09:24:43;;;;;;;16.60;13.00;;;;;;;24.94;76.93;99772.67;213820;1278;141054;-65
2022/08/23 09:29:57;;;;;;;20.00;13.70;;;;;;;24.86;76.74;99773.11;213318;1278;140594;-67
2022/08/23 09:35:10;;;;;;;13.80;12.40;;;;;;;24.77;76.86;99779.29;213054;1277;141349;-67
2022/08/23 09:40:25;;;;;;;19.20;13.30;;;;;;;24.67;76.39;99777.88;212734;1277;141451;-71
2022/08/23 09:45:36;;;;;;;37.80;16.10;;;;;;;24.62;76.52;99772.63;212779;1279;141783;-69
2022/08/23 09:50:48;;;;;;;17.90;14.10;;;;;;;24.61;76.64;99774.04;213323;1278;140368;-68
2022/08/23 09:55:56;;;;;;;18.40;13.30;;;;;;;24.65;76.85;99775.24;213684;1278;140607;-68
2022/08/23 10:01:17;;;;;;;15.00;13.40;;;;;;;24.81;76.78;99778.15;213178;1278;167289;-67
2022/08/23 10:06:33;;;;;;;20.60;15.60;;;;;;;25.14;76.55;99779.31;213828;1278;141953;-68
2022/08/23 10:11:45;;;;;;;16.70;15.10;;;;;;;25.32;76.16;99783.86;214620;1278;141829;-68
2022/08/23 10:16:52;;;;;;;17.90;12.90;;;;;;;25.52;75.87;99778.18;214606;1278;140914;-67
2022/08/23 10:22:18;;;;;;;16.10;13.40;;;;;;;25.83;75.72;99776.09;213878;1279;141054;-68
2022/08/23 10:33:31;;;;;;;19.50;15.10;;;;;;;25.51;74.16;99788.92;214882;1278;141260;-68
2022/08/23 10:38:42;;;;;;;18.60;15.20;;;;;;;25.54;74.12;99795.77;214771;1277;140632;-69
2022/08/23 10:44:32;;;;;;;17.60;14.30;;;;;;;25.56;73.85;99804.16;215344;1278;141993;-68
2022/08/23 10:49:39;;;;;;;17.20;14.60;;;;;;;25.41;73.80;99816.22;214857;1278;141221;-71
2022/08/23 10:55:04;;;;;;;17.40;14.30;;;;;;;25.16;73.75;99829.30;213354;1278;140770;-70
2022/08/23 11:00:19;;;;;;;17.10;15.50;;;;;;;24.84;73.94;99836.63;213889;1278;140654;-69
2022/08/23 11:05:32;;;;;;;24.20;15.70;;;;;;;24.60;74.24;99827.59;214640;1278;141121;-67
2022/08/23 11:10:47;;;;;;;22.10;16.30;;;;;;;24.37;74.44;99811.76;213351;1278;142532;-66
2022/08/23 11:16:20;;;;;;;18.80;15.40;;;;;;;24.18;75.02;99799.30;214321;1278;142656;-66
2022/08/23 11:21:23;;;;;;;22.60;15.50;;;;;;;24.12;75.54;99802.27;213990;1278;140879;-67
2022/08/23 11:26:34;;;;;;;17.40;15.40;;;;;;;24.16;76.03;99801.48;212739;1278;140412;-68
2022/08/23 11:32:08;;;;;;;21.90;15.20;;;;;;;24.14;76.16;99798.05;214028;1277;141875;-67
2022/08/23 11:37:25;;;;;;;16.90;15.20;;;;;;;24.05;76.37;99798.14;212691;1278;140781;-66
2022/08/23 11:42:38;;;;;;;19.00;15.20;;;;;;;24.16;76.72;99791.23;213219;1277;140088;-68
2022/08/23 11:47:43;;;;;;;21.40;17.20;;;;;;;24.40;76.86;99794.70;214733;1277;142545;-71
2022/08/23 11:53:09;;;;;;;18.70;14.90;;;;;;;24.70;76.95;99793.43;212994;1278;141817;-69
2022/08/23 11:58:18;;;;;;;20.50;14.30;;;;;;;25.05;76.66;99788.10;213102;1277;157089;-69
2022/08/23 12:03:31;;;;;;;16.80;14.10;;;;;;;25.24;76.08;99788.75;213264;1278;141561;-68
2022/08/23 12:09:03;;;;;;;16.00;14.50;;;;;;;25.44;75.93;99788.13;214042;1277;141140;-68
2022/08/23 12:14:31;;;;;;;18.10;12.70;;;;;;;25.75;75.14;99783.84;213487;1278;141987;-67
2022/08/23 12:19:41;;;;;;;15.60;13.60;;;;;;;26.24;75.22;99780.90;213436;1277;142357;-67
2022/08/23 12:25:02;;;;;;;15.80;12.50;;;;;;;26.57;74.03;99793.83;215053;1277;140956;-70
2022/08/23 12:30:07;;;;;;;13.20;11.00;;;;;;;26.54;73.54;99798.73;214834;1279;147480;-68
2022/08/23 12:35:35;;;;;;;7.30;5.10;;;;;;;26.61;72.44;99796.23;214988;1279;141902;-66
2022/08/23 12:40:48;;;;;;;8.10;4.90;;;;;;;26.82;71.75;99794.30;215410;1277;140608;-68
2022/08/23 12:46:01;;;;;;;6.60;4.10;;;;;;;26.98;70.86;99788.30;214846;1277;140026;-68
2022/08/23 12:51:11;;;;;;;4.50;3.10;;;;;;;27.02;69.35;99792.13;214318;1277;140055;-69
2022/08/23 12:56:26;;;;;;;5.20;2.70;;;;;;;26.87;68.48;99795.61;213306;1277;140319;-67
2022/08/23 13:01:38;;;;;;;3.50;1.90;;;;;;;26.74;68.14;99789.95;214063;1277;140167;-68
2022/08/23 13:06:49;;;;;;;2.40;1.70;;;;;;;26.67;67.47;99792.20;214940;1277;140481;-67
2022/08/23 13:11:57;;;;;;;3.90;1.80;;;;;;;26.52;66.88;99796.44;212779;1279;140490;-67
2022/08/23 13:17:24;;;;;;;5.30;2.30;;;;;;;26.43;66.53;99791.35;213587;1278;140986;-67
2022/08/23 13:22:31;;;;;;;2.60;1.90;;;;;;;26.35;66.10;99779.11;213287;1277;140242;-67
2022/08/23 13:27:44;;;;;;;5.50;1.90;;;;;;;26.26;65.95;99771.00;213132;1278;141088;-68
2022/08/23 13:33:08;;;;;;;2.80;2.10;;;;;;;26.26;66.09;99757.09;212931;1277;142197;-70
2022/08/23 13:38:16;;;;;;;3.80;2.60;;;;;;;26.29;66.14;99754.40;212974;1277;141959;-68
2022/08/23 13:43:56;;;;;;;9.70;3.40;;;;;;;26.36;66.12;99741.68;213229;1277;141103;-69
2022/08/23 13:49:11;;;;;;;3.80;2.60;;;;;;;26.42;65.96;99730.33;212006;1277;1653807;-68
2022/08/23 13:54:15;;;;;;;12.20;3.70;;;;;;;26.52;66.01;99721.89;213676;1276;140306;-68
2022/08/23 13:59:41;;;;;;;19.50;4.10;;;;;;;26.58;66.46;99720.60;212613;1277;140268;-71
2022/08/23 14:05:10;;;;;;;9.50;4.30;;;;;;;26.65;66.14;99735.19;213558;1277;141067;-78
2022/08/23 14:10:23;;;;;;;6.50;4.90;;;;;;;26.68;66.31;99755.52;213771;1277;140979;-72
2022/08/23 14:15:28;;;;;;;8.60;5.90;;;;;;;26.81;66.56;99778.16;214416;1277;140259;-74
2022/08/23 14:20:52;;;;;;;8.60;5.00;;;;;;;26.99;66.60;99785.39;214734;1277;140197;-73
2022/08/23 14:25:57;;;;;;;6.40;4.90;;;;;;;27.06;66.46;99796.41;214625;1277;140204;-73
2022/08/23 14:31:01;;;;;;;6.30;4.50;;;;;;;26.94;66.06;99811.95;213437;1277;142580;-73
2022/08/23 14:36:07;;;;;;;5.70;4.00;;;;;;;26.77;65.91;99815.75;214576;1277;153231;-73
2022/08/23 14:41:13;;;;;;;;;;;;;;;26.67;65.70;99804.48;214952;1279;140098;-70
2022/08/23 14:46:20;;;;;;;8.00;4.40;;;;;;;26.62;65.67;99793.12;215879;1279;127889;-75
2022/08/23 14:51:38;;;;;;;4.50;2.60;;;;;;;26.63;65.48;99782.01;214772;1277;140397;-68
2022/08/23 14:56:45;;;;;;;7.70;3.50;;;;;;;26.60;65.23;99775.81;213567;1277;140603;-70
2022/08/23 15:01:52;;;;;;;4.70;3.10;;;;;;;26.59;65.10;99769.23;213865;1277;139854;-70
2022/08/23 15:06:56;;;;;;;7.20;4.20;;;;;;;26.71;64.87;99764.86;214113;1277;140985;-72
2022/08/23 15:12:22;;;;;;;16.00;3.90;;;;;;;26.88;64.71;99746.27;213749;1279;140583;-73
2022/08/23 15:17:55;;;;;;;5.70;3.40;;;;;;;27.11;64.64;99744.65;213689;1277;140197;-70
2022/08/23 15:22:59;;;;;;;7.30;3.90;;;;;;;27.25;64.35;99756.86;213198;1277;141509;-71
2022/08/23 15:28:06;;;;;;;8.10;4.00;;;;;;;27.29;63.84;99769.64;213955;1277;140281;-74
2022/08/23 15:33:15;;;;;;;16.20;4.80;;;;;;;27.26;63.71;99780.44;213022;1277;139615;-75
2022/08/23 15:38:20;;;;;;;9.10;4.50;;;;;;;27.26;63.83;99783.31;213601;1277;140072;-77
2022/08/23 15:43:26;;;;;;;9.90;4.10;;;;;;;27.36;63.99;99787.61;213337;1277;141123;-74
2022/08/23 15:48:57;;;;;;;8.60;3.90;;;;;;;27.40;63.85;99792.98;213034;1277;140072;-73
2022/08/23 15:54:03;;;;;;;9.20;3.40;;;;;;;27.37;63.83;99797.96;213636;1277;140338;-72
2022/08/23 15:59:17;;;;;;;14.80;5.10;;;;;;;27.27;63.72;99800.81;213371;1277;139994;-74
2022/08/23 16:04:21;;;;;;;6.20;4.20;;;;;;;27.13;63.89;99817.20;213601;1277;140794;-70
2022/08/23 16:09:25;;;;;;;10.70;3.80;;;;;;;27.04;63.89;99825.56;214941;1277;141521;-73
2022/08/23 16:14:31;;;;;;;7.30;3.30;;;;;;;26.88;64.17;99827.94;214550;1277;140581;-73
2022/08/23 16:19:34;;;;;;;5.20;3.70;;;;;;;26.68;64.52;99841.23;214124;1277;140878;-71
2022/08/23 16:24:41;;;;;;;7.40;3.70;;;;;;;26.56;64.61;99845.83;214620;1277;140435;-74
2022/08/23 16:29:44;;;;;;;5.50;3.40;;;;;;;26.40;65.00;99837.23;214038;1277;141578;-70
2022/08/23 16:34:48;;;;;;;4.20;3.40;;;;;;;26.25;65.48;99834.96;215470;1277;140193;-72
2022/08/23 16:39:51;;;;;;;5.20;3.20;;;;;;;26.13;66.04;99836.93;214103;1277;140079;-72
2022/08/23 16:44:55;;;;;;;8.10;4.50;;;;;;;25.97;66.10;99836.30;215036;1277;140264;-72
2022/08/23 16:50:02;;;;;;;4.30;3.80;;;;;;;25.86;66.77;99833.26;215418;1277;141941;-68
2022/08/23 16:55:09;;;;;;;11.10;3.70;;;;;;;25.76;67.16;99833.80;214200;1277;139827;-73
2022/08/23 17:00:13;;;;;;;4.50;3.10;;;;;;;25.64;66.94;99840.77;213089;1279;140105;-67
2022/08/23 17:05:17;;;;;;;7.30;4.00;;;;;;;25.42;66.86;99843.72;215153;1277;140849;-70
2022/08/23 17:10:22;;;;;;;6.10;3.90;;;;;;;25.17;66.91;99859.88;213851;1277;140617;-67
2022/08/23 17:15:31;;;;;;;8.40;3.90;;;;;;;24.91;66.52;99859.18;214248;1277;141024;-67
2022/08/23 17:20:37;;;;;;;5.10;3.70;;;;;;;24.67;66.46;99862.23;213797;1277;140693;-73
2022/08/23 17:25:46;;;;;;;8.50;3.60;;;;;;;24.41;66.60;99863.00;213858;1278;141784;-71
2022/08/23 17:30:50;;;;;;;7.90;3.70;;;;;;;24.11;67.11;99876.20;213734;1277;139493;-71
2022/08/23 17:35:55;;;;;;;5.00;3.30;;;;;;;23.95;67.64;99884.35;213107;1278;141186;-73
2022/08/23 17:40:59;;;;;;;7.20;3.60;;;;;;;23.80;67.93;99884.37;214047;1277;140301;-70
2022/08/23 17:46:03;;;;;;;11.30;3.70;;;;;;;23.64;68.00;99886.49;212801;1279;140505;-70
2022/08/23 17:51:08;;;;;;;3.70;3.20;;;;;;;23.42;68.52;99893.48;213827;1277;141154;-71
2022/08/23 17:56:12;;;;;;;4.30;3.80;;;;;;;23.10;68.46;99905.38;213678;1277;141038;-69
2022/08/23 18:01:17;;;;;;;11.20;4.10;;;;;;;22.94;69.41;99894.27;213878;1277;140947;-69
2022/08/23 18:06:21;;;;;;;8.60;3.60;;;;;;;22.88;69.80;99888.52;214163;1277;140608;-73
2022/08/23 18:11:25;;;;;;;6.60;3.20;;;;;;;22.79;69.81;99887.95;213651;1277;140467;-71
2022/08/23 18:16:30;;;;;;;12.40;3.50;;;;;;;22.69;70.10;99894.92;213384;1277;140176;-74
2022/08/23 18:21:45;;;;;;;6.70;3.50;;;;;;;22.56;70.20;99905.61;214332;1277;141029;-67
2022/08/23 18:32:13;;;;;;;5.40;2.60;;;;;;;22.10;70.42;99931.96;214110;1277;141122;-71
2022/08/23 18:37:20;;;;;;;5.60;3.50;;;;;;;21.99;71.00;99937.12;214212;1278;139902;-68
2022/08/23 18:42:24;;;;;;;4.30;2.90;;;;;;;21.94;71.31;99934.16;215371;1277;141795;-69
2022/08/23 18:47:28;;;;;;;5.80;3.30;;;;;;;21.89;71.37;99934.14;215349;1277;141056;-68
2022/08/23 18:52:32;;;;;;;7.90;3.10;;;;;;;21.78;71.59;99938.36;215065;1277;140776;-70
2022/08/23 18:57:36;;;;;;;9.30;3.90;;;;;;;21.72;71.73;99947.95;214756;1279;140403;-71
2022/08/23 19:02:40;;;;;;;7.50;3.30;;;;;;;21.65;71.99;99954.46;214140;1278;140417;-71
2022/08/23 19:07:44;;;;;;;9.90;3.30;;;;;;;21.54;72.03;99972.13;215055;1277;141137;-70
2022/08/23 19:12:48;;;;;;;10.40;3.80;;;;;;;21.47;72.43;99978.55;213955;1277;140834;-68
2022/08/23 19:17:57;;;;;;;6.40;3.60;;;;;;;21.45;72.84;99985.55;213065;1279;141728;-67
2022/08/23 19:23:00;;;;;;;10.80;3.40;;;;;;;21.36;72.97;99978.63;213378;1277;140863;-68
2022/08/23 19:28:05;;;;;;;11.30;4.30;;;;;;;21.17;73.14;99976.59;213538;1277;140516;-69
2022/08/23 19:33:09;;;;;;;6.10;2.80;;;;;;;21.15;73.58;99973.70;213693;1279;141466;-69
2022/08/23 19:38:13;;;;;;;8.50;3.50;;;;;;;21.16;73.75;99976.95;212710;1277;140224;-67
2022/08/23 19:43:17;;;;;;;7.50;4.40;;;;;;;21.09;73.75;99982.39;213199;1277;140825;-68
2022/08/23 19:48:21;;;;;;;6.30;4.10;;;;;;;21.03;74.12;99985.86;213830;1277;140555;-68
2022/08/23 19:53:28;;;;;;;5.10;4.50;;;;;;;20.98;74.31;99979.17;213596;1277;140485;-68
2022/08/23 19:58:34;;;;;;;10.90;4.10;;;;;;;20.92;74.28;99978.14;214093;1277;141649;-68
2022/08/23 20:03:38;;;;;;;8.10;4.00;;;;;;;20.84;74.41;99977.48;213377;1277;141045;-68
2022/08/23 20:08:43;;;;;;;7.10;3.20;;;;;;;20.77;74.52;99983.91;213100;1277;142286;-70
2022/08/23 20:13:48;;;;;;;7.00;3.50;;;;;;;20.64;74.83;99989.37;214334;1277;141419;-70
2022/08/23 20:18:54;;;;;;;8.00;3.50;;;;;;;20.54;74.73;99983.46;214019;1277;140945;-69
2022/08/23 20:24:00;;;;;;;10.90;3.90;;;;;;;20.48;75.00;99981.82;213579;1277;141073;-70
2022/08/23 20:29:04;;;;;;;7.00;4.80;;;;;;;20.41;75.07;99980.95;212690;1278;140837;-70
2022/08/23 20:34:08;;;;;;;9.70;3.10;;;;;;;20.27;75.17;99983.45;215222;1277;141376;-70
2022/08/23 20:39:12;;;;;;;8.50;4.40;;;;;;;20.23;75.44;99975.59;214754;1277;140757;-70
2022/08/23 20:44:16;;;;;;;13.10;5.40;;;;;;;20.14;75.52;99963.45;215449;1277;140832;-71
2022/08/23 20:49:22;;;;;;;8.40;4.80;;;;;;;20.10;75.76;99966.21;215128;1277;142645;-67
2022/08/23 20:54:26;;;;;;;;;;;;;;;20.09;76.00;99968.94;215193;1277;140955;-68
2022/08/23 20:59:32;;;;;;;10.30;4.20;;;;;;;20.03;76.04;99965.98;213895;1277;127590;-67
2022/08/23 21:04:35;;;;;;;8.90;4.70;;;;;;;19.90;76.16;99965.08;213789;1277;236151;-66
2022/08/23 21:09:42;;;;;;;;;;;;;;;19.90;76.48;99967.17;214796;1276;140826;-72
2022/08/23 21:14:47;;;;;;;6.00;4.70;;;;;;;19.84;76.51;99970.69;214711;1277;126816;-67
2022/08/23 21:19:51;;;;;;;4.20;3.80;;;;;;;19.81;76.53;99967.48;212948;1278;141067;-68
2022/08/23 21:24:55;;;;;;;10.00;5.00;;;;;;;19.80;76.69;99966.34;213254;1277;141669;-68
2022/08/23 21:29:59;;;;;;;21.90;6.30;;;;;;;19.67;76.39;99972.23;213438;1278;140942;-67
2022/08/23 21:35:04;;;;;;;9.90;4.10;;;;;;;19.51;76.72;99976.48;213958;1279;141672;-68
2022/08/23 21:40:09;;;;;;;5.90;4.20;;;;;;;19.50;76.78;99984.32;212964;1279;141072;-67
2022/08/23 21:45:14;;;;;;;7.10;4.20;;;;;;;19.45;76.93;99990.52;213252;1278;141431;-66
2022/08/23 21:50:19;;;;;;;9.90;5.10;;;;;;;19.43;77.05;99989.85;212695;1278;140951;-66
2022/08/23 21:55:26;;;;;;;5.00;4.40;;;;;;;19.41;77.33;99996.99;213445;1278;141939;-67
2022/08/23 22:00:40;;;;;;;5.90;5.00;;;;;;;19.34;77.12;99997.98;213238;1278;143614;-67
2022/08/23 22:05:44;;;;;;;7.00;4.60;;;;;;;19.23;77.57;99999.58;212844;1278;141078;-68
2022/08/23 22:10:48;;;;;;;6.10;4.30;;;;;;;19.23;77.96;100001.14;212667;1278;141743;-68
2022/08/23 22:16:02;;;;;;;9.20;4.00;;;;;;;19.27;78.19;100002.92;213185;1279;141181;-69
2022/08/23 22:21:06;;;;;;;5.20;4.60;;;;;;;19.28;78.32;100004.19;212801;1278;141399;-67
2022/08/23 22:26:10;;;;;;;7.20;4.70;;;;;;;19.28;78.38;100001.61;213846;1278;142834;-67
2022/08/23 22:31:14;;;;;;;11.60;5.00;;;;;;;19.23;78.21;99997.51;215330;1277;141489;-67
2022/08/23 22:36:20;;;;;;;9.00;5.50;;;;;;;19.16;78.54;99996.28;215115;1277;140375;-67
2022/08/23 22:41:26;;;;;;;7.00;4.40;;;;;;;19.24;78.85;99997.41;215355;1278;140137;-67
2022/08/23 22:46:31;;;;;;;15.00;5.40;;;;;;;19.28;78.50;99992.95;215171;1278;141719;-71
2022/08/23 22:51:36;;;;;;;8.20;5.70;;;;;;;19.34;78.69;100003.23;215135;1278;141541;-69
2022/08/23 22:56:46;;;;;;;11.80;5.40;;;;;;;19.38;78.61;100004.27;215609;1277;140623;-70
2022/08/23 23:01:53;;;;;;;6.50;5.00;;;;;;;19.36;78.64;100006.23;213766;1278;140490;-66
2022/08/23 23:06:57;;;;;;;5.00;4.60;;;;;;;19.36;78.61;100000.77;212805;1277;141792;-69
2022/08/23 23:12:01;;;;;;;9.10;4.90;;;;;;;19.27;78.39;99997.46;214984;1277;141276;-70
2022/08/23 23:17:04;;;;;;;9.50;4.80;;;;;;;19.13;78.12;99998.09;213559;1277;141335;-65
2022/08/23 23:22:08;;;;;;;5.40;4.70;;;;;;;18.92;78.37;99995.52;214126;1277;141253;-70
2022/08/23 23:27:11;;;;;;;14.90;6.10;;;;;;;18.85;78.85;99994.77;213646;1278;140702;-70
2022/08/23 23:32:17;;;;;;;11.90;5.40;;;;;;;18.92;79.29;99988.19;213209;1277;141316;-68
2022/08/23 23:37:23;;;;;;;12.60;6.50;;;;;;;18.97;79.26;99986.50;212744;1279;140526;-71
2022/08/23 23:42:28;;;;;;;10.30;6.70;;;;;;;18.96;79.11;99980.73;213013;1279;141306;-71
2022/08/23 23:47:31;;;;;;;13.60;7.10;;;;;;;18.83;78.80;99985.49;213082;1277;141315;-71